Time;durP1;ratioP1;P1;durP2;ratioP2;P2;SDS_P1;SDS_P2;PMS_P1;PMS_P2;Temp;Humidity;BMP_temperature;BMP_pressure;BME280_temperature;BME280_humidity;BME280_pressure;Samples;Min_cycle;Max_cycle;Signal;HPM_P1;HPM_P2
2024/04/12 00:01:44;;;;;;;8.37;5.30;;;7.30;92.50;;;;;;5405055;26;20455;-62
2024/04/12 00:04:15;;;;;;;12.77;5.80;;;7.30;93.10;;;;;;5406346;26;20459;-61
2024/04/12 00:06:45;;;;;;;7.90;5.40;;;7.30;93.50;;;;;;5431717;26;21228;-62
2024/04/12 00:09:17;;;;;;;9.83;6.00;;;7.20;93.80;;;;;;5404507;26;20450;-62
2024/04/12 00:11:46;;;;;;;14.70;6.80;;;7.20;93.70;;;;;;5409070;26;21035;-62
2024/04/12 00:14:15;;;;;;;16.30;6.60;;;7.20;93.80;;;;;;5405559;26;20466;-61
2024/04/12 00:16:49;;;;;;;10.63;6.90;;;7.10;93.90;;;;;;5406194;26;20574;-62
2024/04/12 00:19:19;;;;;;;12.90;5.93;;;7.10;94.10;;;;;;5404970;26;20455;-61
2024/04/12 00:21:48;;;;;;;13.90;6.20;;;7.00;94.30;;;;;;5404034;26;20464;-61
2024/04/12 00:24:16;;;;;;;11.67;7.43;;;7.00;94.90;;;;;;5409050;26;20581;-61
2024/04/12 00:26:43;;;;;;;13.70;6.97;;;7.00;95.70;;;;;;5411296;26;20517;-61
2024/04/12 00:29:31;;;;;;;13.03;7.30;;;7.00;95.80;;;;;;5406979;26;21080;-61
2024/04/12 00:32:04;;;;;;;10.40;6.40;;;6.90;96.00;;;;;;5405577;26;21042;-62
2024/04/12 00:34:38;;;;;;;9.27;5.60;;;6.90;95.50;;;;;;5400476;26;20561;-62
2024/04/12 00:37:08;;;;;;;9.90;5.70;;;6.90;95.80;;;;;;5402449;26;20463;-62
2024/04/12 00:39:35;;;;;;;11.00;5.80;;;6.90;95.90;;;;;;5402101;26;20466;-62
2024/04/12 00:42:07;;;;;;;11.80;5.60;;;6.90;95.70;;;;;;5406349;26;20572;-62
2024/04/12 00:44:39;;;;;;;10.30;5.60;;;6.80;95.10;;;;;;5408148;26;20588;-61
2024/04/12 00:47:10;;;;;;;9.13;6.37;;;6.80;94.80;;;;;;5409712;26;20470;-61
2024/04/12 00:49:39;;;;;;;13.03;4.97;;;6.70;95.60;;;;;;5400632;26;21193;-61
2024/04/12 00:52:07;;;;;;;6.73;5.57;;;6.70;96.40;;;;;;5408090;26;20524;-63
2024/04/12 00:54:36;;;;;;;10.53;5.80;;;6.70;96.70;;;;;;5399833;26;20561;-61
2024/04/12 00:57:02;;;;;;;8.63;5.23;;;6.60;96.30;;;;;;5408663;26;20442;-62
2024/04/12 00:59:28;;;;;;;7.33;5.73;;;6.60;96.80;;;;;;5406734;26;20463;-62
2024/04/12 01:01:55;;;;;;;11.00;6.30;;;6.60;96.70;;;;;;5407978;26;20455;-60
2024/04/12 01:04:21;;;;;;;9.60;5.60;;;6.60;96.70;;;;;;5405037;26;20236;-61
2024/04/12 01:06:47;;;;;;;11.80;5.83;;;6.60;97.20;;;;;;5407029;26;20570;-62
2024/04/12 01:09:13;;;;;;;10.17;5.60;;;6.50;97.20;;;;;;5400836;26;20272;-61
2024/04/12 01:11:39;;;;;;;7.07;5.27;;;6.50;97.50;;;;;;5431131;26;20447;-62
2024/04/12 01:14:05;;;;;;;7.60;5.53;;;6.50;97.40;;;;;;5408843;26;20221;-62
2024/04/12 01:16:31;;;;;;;8.70;5.77;;;6.50;97.80;;;;;;5436208;26;20530;-61
2024/04/12 01:18:57;;;;;;;8.97;6.03;;;6.50;98.00;;;;;;5401764;26;20840;-61
2024/04/12 01:21:26;;;;;;;7.67;6.07;;;6.40;98.00;;;;;;5405666;26;20455;-62
2024/04/12 01:23:54;;;;;;;8.70;5.60;;;6.40;97.90;;;;;;5406639;26;20617;-62
2024/04/12 01:26:23;;;;;;;9.30;6.00;;;6.40;97.80;;;;;;5408008;26;20451;-61
2024/04/12 01:28:51;;;;;;;8.40;4.90;;;6.30;98.00;;;;;;5407107;26;20518;-62
2024/04/12 01:31:17;;;;;;;8.47;5.23;;;6.30;97.70;;;;;;5398391;26;20535;-62
2024/04/12 01:33:51;;;;;;;14.67;5.80;;;6.30;97.70;;;;;;5404521;26;21249;-61
2024/04/12 01:36:18;;;;;;;7.67;5.43;;;6.30;97.40;;;;;;5405836;26;20507;-62
2024/04/12 01:38:53;;;;;;;9.87;6.10;;;6.20;98.00;;;;;;5408337;26;20462;-61
2024/04/12 01:41:27;;;;;;;11.90;6.57;;;6.20;98.70;;;;;;5400850;26;21091;-62
2024/04/12 01:43:53;;;;;;;7.50;5.47;;;6.20;99.10;;;;;;5406197;26;20470;-62
2024/04/12 01:46:27;;;;;;;7.20;5.80;;;6.20;99.40;;;;;;5407614;26;20458;-61
2024/04/12 01:48:54;;;;;;;9.10;5.93;;;6.10;99.80;;;;;;5404712;26;20584;-62
2024/04/12 01:51:24;;;;;;;7.80;5.10;;;6.10;99.40;;;;;;5409675;26;20515;-61
2024/04/12 01:53:54;;;;;;;8.37;5.27;;;6.10;99.30;;;;;;5408143;26;20465;-62
2024/04/12 01:56:22;;;;;;;9.70;5.47;;;6.10;98.90;;;;;;5404581;26;20460;-61
2024/04/12 01:58:49;;;;;;;7.63;5.77;;;6.10;98.50;;;;;;5398458;26;20495;-61
2024/04/12 02:01:16;;;;;;;14.90;6.27;;;6.00;98.30;;;;;;5406898;26;20600;-61
2024/04/12 02:03:42;;;;;;;10.90;6.50;;;6.00;98.60;;;;;;5406874;26;20796;-61
2024/04/12 02:06:09;;;;;;;7.33;5.70;;;6.00;98.80;;;;;;5404825;26;20458;-62
2024/04/12 02:08:38;;;;;;;11.80;5.80;;;6.00;99.10;;;;;;5397403;26;20573;-63
2024/04/12 02:11:07;;;;;;;7.17;5.80;;;5.90;99.40;;;;;;5409710;26;20887;-62
2024/04/12 02:13:36;;;;;;;9.37;6.47;;;5.90;99.90;;;;;;5406997;26;20512;-61
2024/04/12 02:16:02;;;;;;;17.93;6.67;;;5.90;99.90;;;;;;5407604;26;20463;-62
2024/04/12 02:18:33;;;;;;;9.37;6.13;;;5.90;99.90;;;;;;5404150;26;20450;-61
2024/04/12 02:21:06;;;;;;;11.23;6.50;;;5.90;99.90;;;;;;5402010;26;20511;-62
2024/04/12 02:23:37;;;;;;;7.13;5.43;;;5.90;99.90;;;;;;5401271;26;20470;-61
2024/04/12 02:26:04;;;;;;;15.00;6.70;;;5.80;99.90;;;;;;5403294;26;20462;-61
2024/04/12 02:28:30;;;;;;;11.40;7.03;;;5.80;99.90;;;;;;5396580;26;20454;-61
2024/04/12 02:31:01;;;;;;;9.53;5.97;;;5.80;99.90;;;;;;5400484;26;21101;-62
2024/04/12 02:33:31;;;;;;;13.60;6.00;;;5.70;99.90;;;;;;5424869;26;20271;-61
2024/04/12 02:36:11;;;;;;;8.43;6.33;;;5.70;99.90;;;;;;5404467;26;21258;-61
2024/04/12 02:38:40;;;;;;;9.40;5.83;;;5.60;99.90;;;;;;5414825;26;20535;-62
2024/04/12 02:41:06;;;;;;;11.17;6.30;;;5.60;99.90;;;;;;5404985;26;20597;-62
2024/04/12 02:43:35;;;;;;;9.00;5.87;;;5.70;99.90;;;;;;5394902;26;20482;-62
2024/04/12 02:46:01;;;;;;;10.70;5.70;;;5.70;99.90;;;;;;5401294;26;20514;-62
2024/04/12 02:48:28;;;;;;;13.10;6.60;;;5.60;99.90;;;;;;5403443;26;21145;-61
2024/04/12 02:50:55;;;;;;;9.97;6.17;;;5.60;99.90;;;;;;5410760;26;20512;-61
2024/04/12 02:53:24;;;;;;;10.30;5.80;;;5.60;99.90;;;;;;5400953;26;20530;-61
2024/04/12 02:56:02;;;;;;;9.13;6.30;;;5.60;99.90;;;;;;5406132;26;21007;-61
2024/04/12 02:58:40;;;;;;;13.53;5.43;;;5.50;99.90;;;;;;5403831;26;21199;-61
2024/04/12 03:01:19;;;;;;;9.43;5.73;;;5.50;99.90;;;;;;5407343;26;20454;-62
2024/04/12 03:03:48;;;;;;;9.83;6.67;;;5.50;99.90;;;;;;5406985;26;21027;-62
2024/04/12 03:06:24;;;;;;;15.03;7.10;;;5.40;99.90;;;;;;5401698;26;20462;-61
2024/04/12 03:08:52;;;;;;;8.67;5.83;;;5.40;99.90;;;;;;5404582;26;20463;-61
2024/04/12 03:11:22;;;;;;;9.20;6.60;;;5.40;99.90;;;;;;5407251;26;20454;-61
2024/04/12 03:14:03;;;;;;;6.83;6.13;;;5.30;99.90;;;;;;5404404;26;20454;-61
2024/04/12 03:16:30;;;;;;;11.63;6.10;;;5.30;99.90;;;;;;5401504;26;21341;-62
2024/04/12 03:18:57;;;;;;;9.87;5.90;;;5.20;99.90;;;;;;5405387;26;20556;-61
2024/04/12 03:21:26;;;;;;;10.97;6.03;;;5.30;99.90;;;;;;5406911;26;20503;-62
2024/04/12 03:23:53;;;;;;;8.50;5.80;;;5.20;99.90;;;;;;5403578;26;20520;-62
2024/04/12 03:26:21;;;;;;;9.77;6.60;;;5.20;99.90;;;;;;5406797;26;20462;-61
2024/04/12 03:28:49;;;;;;;12.07;6.33;;;5.20;99.90;;;;;;5404625;26;20506;-61
2024/04/12 03:31:17;;;;;;;12.13;6.70;;;5.20;99.90;;;;;;5398379;26;20716;-61
2024/04/12 03:33:44;;;;;;;17.60;6.80;;;5.10;99.90;;;;;;5395533;26;20474;-61
2024/04/12 03:41:46;;;;;;;14.30;6.70;;;5.10;99.90;;;;;;5405046;26;20513;-62
2024/04/12 03:44:18;;;;;;;10.50;6.80;;;5.00;99.90;;;;;;5402686;26;20474;-61
2024/04/12 03:46:47;;;;;;;16.07;8.40;;;5.00;99.90;;;;;;5394589;26;20321;-61
2024/04/12 03:49:20;;;;;;;15.10;7.20;;;5.00;99.90;;;;;;5405840;26;20576;-61
2024/04/12 03:51:50;;;;;;;11.00;7.23;;;5.00;99.90;;;;;;5399335;26;20537;-62
2024/04/12 03:54:19;;;;;;;10.47;7.70;;;5.00;99.90;;;;;;5400570;26;20532;-61
2024/04/12 03:56:57;;;;;;;12.47;6.93;;;5.00;99.90;;;;;;5402833;26;21124;-61
2024/04/12 03:59:29;;;;;;;13.23;6.83;;;4.90;99.90;;;;;;5399307;26;20526;-59
2024/04/12 04:01:56;;;;;;;14.43;7.20;;;4.90;99.90;;;;;;5400815;26;20522;-60
2024/04/12 04:04:26;;;;;;;12.10;6.60;;;4.90;99.90;;;;;;5403865;26;20462;-60
2024/04/12 04:06:55;;;;;;;8.90;6.43;;;4.90;99.90;;;;;;5389791;26;21016;-60
2024/04/12 04:09:27;;;;;;;13.63;6.83;;;4.90;99.90;;;;;;5399422;26;20508;-62
2024/04/12 04:11:54;;;;;;;9.87;6.83;;;4.90;99.90;;;;;;5398583;26;21119;-62
2024/04/12 04:14:28;;;;;;;9.60;7.00;;;4.90;99.90;;;;;;5398194;26;21036;-58
2024/04/12 04:16:55;;;;;;;12.67;6.80;;;4.90;99.90;;;;;;5399755;26;20561;-58
2024/04/12 04:19:30;;;;;;;9.60;7.10;;;4.90;99.90;;;;;;5397753;26;20478;-63
2024/04/12 04:22:02;;;;;;;12.10;7.13;;;4.90;99.90;;;;;;5400196;26;20462;-63
2024/04/12 04:24:37;;;;;;;10.80;7.57;;;4.80;99.90;;;;;;5397037;26;20458;-62
2024/04/12 04:27:08;;;;;;;14.90;8.47;;;4.80;99.90;;;;;;5393658;26;20515;-63
2024/04/12 04:29:35;;;;;;;18.93;8.30;;;4.80;99.90;;;;;;5402081;26;20526;-63
2024/04/12 04:32:01;;;;;;;15.97;8.17;;;4.80;99.90;;;;;;5405577;26;20538;-62
2024/04/12 04:34:27;;;;;;;20.27;8.67;;;4.80;99.90;;;;;;5402162;26;20955;-63
2024/04/12 04:36:56;;;;;;;11.27;7.17;;;4.80;99.90;;;;;;5390039;26;20519;-62
2024/04/12 04:39:23;;;;;;;12.03;7.90;;;4.80;99.90;;;;;;5383435;26;20463;-62
2024/04/12 04:41:53;;;;;;;11.03;7.40;;;4.80;99.90;;;;;;5397847;26;20560;-62
2024/04/12 04:44:21;;;;;;;12.93;8.03;;;4.80;99.90;;;;;;5390585;26;20590;-63
2024/04/12 04:46:49;;;;;;;13.07;7.27;;;4.80;99.90;;;;;;5393236;26;21066;-63
2024/04/12 04:49:20;;;;;;;12.40;7.23;;;4.80;99.90;;;;;;5402745;26;20939;-64
2024/04/12 04:51:49;;;;;;;13.47;7.90;;;4.70;99.90;;;;;;5400811;26;20515;-62
2024/04/12 04:54:16;;;;;;;14.60;7.93;;;4.70;99.90;;;;;;5400344;26;20462;-61
2024/04/12 04:56:42;;;;;;;12.63;7.90;;;4.70;99.90;;;;;;5400022;26;20879;-62
2024/04/12 04:59:09;;;;;;;9.83;7.07;;;4.70;99.90;;;;;;5407872;26;20514;-63
2024/04/12 05:01:34;;;;;;;12.73;7.90;;;4.70;99.90;;;;;;5404230;26;20458;-62
2024/04/12 05:04:01;;;;;;;9.83;7.03;;;4.70;99.90;;;;;;5416888;26;20651;-62
2024/04/12 05:06:27;;;;;;;12.97;7.50;;;4.70;99.90;;;;;;5406529;26;20228;-62
2024/04/12 05:08:55;;;;;;;11.23;6.67;;;4.80;99.90;;;;;;5405649;26;21212;-62
2024/04/12 05:11:21;;;;;;;13.90;7.10;;;4.70;99.90;;;;;;5406530;26;20861;-63
2024/04/12 05:13:50;;;;;;;14.40;7.03;;;4.70;99.90;;;;;;5403676;26;21532;-62
2024/04/12 05:16:19;;;;;;;12.80;7.30;;;4.80;99.90;;;;;;5405898;26;20458;-62
2024/04/12 05:18:48;;;;;;;11.33;7.17;;;4.80;99.90;;;;;;5408420;26;20450;-62
2024/04/12 05:21:15;;;;;;;10.33;7.33;;;4.80;99.90;;;;;;5406484;26;20579;-62
2024/04/12 05:23:41;;;;;;;12.30;8.00;;;4.90;99.90;;;;;;5403436;26;20517;-62
2024/04/12 05:26:09;;;;;;;10.60;7.27;;;4.90;99.90;;;;;;5405094;26;21340;-62
2024/04/12 05:28:38;;;;;;;15.63;7.67;;;5.00;99.90;;;;;;5408526;26;20329;-62
2024/04/12 05:31:11;;;;;;;12.63;7.63;;;5.00;99.90;;;;;;5405147;26;20462;-62
2024/04/12 05:33:42;;;;;;;14.43;7.50;;;5.10;99.90;;;;;;5406697;26;20514;-62
2024/04/12 05:36:09;;;;;;;14.10;8.50;;;5.10;99.90;;;;;;5408237;26;20968;-63
2024/04/12 05:38:38;;;;;;;12.50;8.27;;;5.20;99.90;;;;;;5405078;26;20502;-62
2024/04/12 05:41:04;;;;;;;16.53;7.90;;;5.30;99.90;;;;;;5409702;26;20439;-63
2024/04/12 05:43:30;;;;;;;12.70;7.13;;;5.30;99.90;;;;;;5404125;26;21106;-62
2024/04/12 05:45:57;;;;;;;11.60;7.40;;;5.40;99.90;;;;;;5407323;26;20285;-62
2024/04/12 05:48:24;;;;;;;14.07;7.60;;;5.50;99.90;;;;;;5398758;26;20575;-62
2024/04/12 05:50:53;;;;;;;10.50;7.50;;;5.60;99.90;;;;;;5406254;26;20466;-62
2024/04/12 05:53:23;;;;;;;12.47;7.57;;;5.70;99.90;;;;;;5406779;26;20506;-62
2024/04/12 05:58:36;;;;;;;18.67;7.87;;;5.90;99.90;;;;;;5407688;26;20540;-62
2024/04/12 06:01:07;;;;;;;17.47;8.43;;;5.90;99.90;;;;;;5401779;26;21001;-62
2024/04/12 06:03:33;;;;;;;12.13;7.70;;;6.00;99.90;;;;;;5403935;26;20829;-62
2024/04/12 06:05:59;;;;;;;13.17;7.73;;;6.00;99.90;;;;;;5408797;26;20934;-63
2024/04/12 06:08:25;;;;;;;11.53;6.87;;;6.00;99.90;;;;;;5402822;26;20458;-63
2024/04/12 06:10:51;;;;;;;10.70;7.43;;;6.00;99.90;;;;;;5401799;26;20233;-63
2024/04/12 06:13:17;;;;;;;20.30;7.30;;;6.10;99.90;;;;;;5405014;26;20225;-62
2024/04/12 06:15:43;;;;;;;11.50;7.50;;;6.10;99.90;;;;;;5408600;26;20530;-62
2024/04/12 06:18:12;;;;;;;13.10;8.60;;;6.20;99.90;;;;;;5404534;26;20992;-63
2024/04/12 06:20:39;;;;;;;19.93;8.60;;;6.10;99.90;;;;;;5403654;26;20517;-62
2024/04/12 06:23:09;;;;;;;14.80;8.30;;;6.10;99.90;;;;;;5407767;26;20506;-62
2024/04/12 06:25:43;;;;;;;13.00;7.23;;;6.20;99.90;;;;;;5404258;26;20856;-61
2024/04/12 06:28:11;;;;;;;18.13;8.53;;;6.20;99.90;;;;;;5405656;26;20507;-63
2024/04/12 06:30:41;;;;;;;10.47;7.90;;;6.20;99.90;;;;;;5403428;26;20451;-62
2024/04/12 06:33:07;;;;;;;13.23;8.30;;;6.30;99.90;;;;;;5407853;26;20470;-63
2024/04/12 06:35:33;;;;;;;10.90;7.90;;;6.30;99.90;;;;;;5405350;26;20447;-62
2024/04/12 06:37:59;;;;;;;17.53;8.17;;;6.30;99.90;;;;;;5404269;26;20568;-62
2024/04/12 06:40:28;;;;;;;11.63;7.33;;;6.30;99.90;;;;;;5392370;26;20525;-63
2024/04/12 06:43:05;;;;;;;17.40;9.20;;;6.40;99.90;;;;;;5398592;26;20517;-62
2024/04/12 06:45:44;;;;;;;25.40;8.87;;;6.50;99.90;;;;;;5400228;26;20774;-62
2024/04/12 06:48:10;;;;;;;11.50;7.37;;;6.60;99.90;;;;;;5402935;26;20587;-63
2024/04/12 06:50:39;;;;;;;13.57;7.53;;;6.60;99.90;;;;;;5404395;26;20809;-63
2024/04/12 06:53:08;;;;;;;12.70;7.53;;;6.80;99.90;;;;;;5404052;26;20518;-63
2024/04/12 06:55:46;;;;;;;14.00;7.70;;;6.90;99.90;;;;;;5408155;26;20455;-62
2024/04/12 06:58:12;;;;;;;11.23;7.60;;;7.10;99.90;;;;;;5404967;26;20450;-62
2024/04/12 07:00:38;;;;;;;15.40;8.27;;;7.20;99.90;;;;;;5407511;26;20498;-63
2024/04/12 07:03:08;;;;;;;14.70;7.73;;;7.30;99.90;;;;;;5401787;26;20475;-63
2024/04/12 07:05:33;;;;;;;15.60;7.60;;;7.40;99.90;;;;;;5405755;26;20759;-63
2024/04/12 07:08:05;;;;;;;18.07;8.23;;;7.60;99.90;;;;;;5403054;26;20454;-62
2024/04/12 07:10:32;;;;;;;10.30;7.17;;;7.60;99.90;;;;;;5420640;26;21385;-63
2024/04/12 07:12:58;;;;;;;11.60;7.53;;;7.60;99.90;;;;;;5402110;26;20479;-62
2024/04/12 07:15:23;;;;;;;14.20;8.13;;;7.60;99.90;;;;;;5406209;26;20467;-63
2024/04/12 07:17:49;;;;;;;17.33;8.67;;;7.70;99.90;;;;;;5406106;26;20450;-62
2024/04/12 07:20:21;;;;;;;10.77;7.20;;;7.70;99.90;;;;;;5402915;26;20338;-63
2024/04/12 07:22:49;;;;;;;11.00;7.13;;;7.90;99.90;;;;;;5405118;26;20232;-63
2024/04/12 07:25:15;;;;;;;10.17;7.07;;;8.00;99.90;;;;;;5404583;26;20849;-62
2024/04/12 07:27:41;;;;;;;13.43;7.63;;;8.10;99.90;;;;;;5407258;26;20558;-62
2024/04/12 07:30:08;;;;;;;13.03;8.40;;;8.20;99.90;;;;;;5406183;26;20474;-62
2024/04/12 07:32:36;;;;;;;12.57;7.27;;;8.30;99.90;;;;;;5406901;26;20610;-62
2024/04/12 07:35:22;;;;;;;13.33;7.10;;;8.50;99.90;;;;;;5398797;26;20931;-62
2024/04/12 07:37:48;;;;;;;11.63;7.77;;;8.60;99.90;;;;;;5404437;26;20544;-63
2024/04/12 07:40:18;;;;;;;13.20;7.83;;;8.70;99.90;;;;;;5405065;26;20981;-62
2024/04/12 07:42:48;;;;;;;12.07;8.00;;;8.90;99.90;;;;;;5407523;26;20743;-63
2024/04/12 07:45:23;;;;;;;8.67;6.83;;;9.00;99.20;;;;;;5406872;26;20934;-62
2024/04/12 07:48:11;;;;;;;16.47;8.60;;;9.20;99.40;;;;;;5407453;26;20579;-62
2024/04/12 07:50:39;;;;;;;15.93;8.60;;;9.40;97.80;;;;;;5405256;26;20474;-63
2024/04/12 07:55:55;;;;;;;16.00;9.17;;;9.60;87.30;;;;;;5401857;26;20466;-63
2024/04/12 07:58:26;;;;;;;22.93;9.17;;;9.70;89.00;;;;;;5402746;26;20478;-62
2024/04/12 08:00:54;;;;;;;15.00;9.90;;;9.80;86.20;;;;;;5402081;26;20466;-62
2024/04/12 08:03:19;;;;;;;20.30;9.87;;;9.90;85.80;;;;;;5403158;26;20462;-63
2024/04/12 08:06:03;;;;;;;15.27;9.90;;;10.10;85.10;;;;;;5401998;26;20454;-62
2024/04/12 08:08:44;;;;;;;20.30;9.20;;;10.30;85.10;;;;;;5403029;26;20225;-63
2024/04/12 08:14:08;;;;;;;15.90;9.07;;;10.60;84.60;;;;;;5403519;26;20553;-62
2024/04/12 08:16:38;;;;;;;16.23;9.80;;;10.70;82.90;;;;;;5401338;26;20517;-63
2024/04/12 08:19:22;;;;;;;15.77;8.80;;;10.90;83.00;;;;;;5393048;26;20466;-63
2024/04/12 08:21:48;;;;;;;20.47;10.50;;;11.00;84.10;;;;;;5401203;26;20506;-62
2024/04/12 08:24:22;;;;;;;15.90;9.77;;;11.20;82.70;;;;;;5406199;26;20490;-62
2024/04/12 08:26:54;;;;;;;17.23;10.13;;;11.30;81.90;;;;;;5406513;26;20474;-63
2024/04/12 08:29:23;;;;;;;19.70;10.90;;;11.50;82.20;;;;;;5400596;26;20454;-62
2024/04/12 08:34:45;;;;;;;20.93;11.40;;;11.80;79.10;;;;;;5407436;26;20455;-63
2024/04/12 08:37:13;;;;;;;16.83;12.63;;;12.00;76.50;;;;;;5401404;26;20469;-63
2024/04/12 08:39:53;;;;;;;19.70;13.40;;;12.20;75.50;;;;;;5398065;26;20514;-62
2024/04/12 08:42:19;;;;;;;21.80;12.27;;;12.30;74.30;;;;;;5406568;26;20439;-62
2024/04/12 08:44:48;;;;;;;17.27;11.80;;;12.50;72.70;;;;;;5389572;26;20473;-64
2024/04/12 08:49:56;;;;;;;20.90;12.40;;;12.80;70.00;;;;;;5409651;26;20869;-61
2024/04/12 08:52:28;;;;;;;19.10;11.37;;;13.00;69.50;;;;;;5400782;26;20447;-62
2024/04/12 08:54:55;;;;;;;18.27;11.07;;;13.10;67.20;;;;;;5408982;26;21116;-62
2024/04/12 08:57:23;;;;;;;14.03;9.97;;;13.20;67.00;;;;;;5429972;26;20466;-62
2024/04/12 08:59:49;;;;;;;11.30;8.20;;;13.30;65.60;;;;;;5408007;26;20462;-62
2024/04/12 09:02:20;;;;;;;9.90;7.33;;;13.40;63.80;;;;;;5409216;26;20507;-62
2024/04/12 09:04:45;;;;;;;13.40;7.93;;;13.60;63.60;;;;;;5408675;26;20474;-61
2024/04/12 09:07:14;;;;;;;12.63;6.20;;;13.80;63.10;;;;;;5402269;26;20459;-62
2024/04/12 09:09:45;;;;;;;10.00;6.10;;;14.00;62.80;;;;;;5407384;26;20220;-62
2024/04/12 09:12:13;;;;;;;10.13;6.30;;;14.10;59.70;;;;;;5401829;26;20527;-63
2024/04/12 09:14:42;;;;;;;11.20;6.00;;;14.30;58.70;;;;;;5409221;26;21095;-62
2024/04/12 09:17:14;;;;;;;11.10;6.17;;;14.40;59.20;;;;;;5408708;26;20447;-63
2024/04/12 09:19:45;;;;;;;8.73;5.47;;;14.60;59.30;;;;;;5404355;26;20454;-62
2024/04/12 09:22:17;;;;;;;8.27;6.53;;;14.80;59.00;;;;;;5406105;26;20454;-63
2024/04/12 09:24:48;;;;;;;15.27;8.20;;;15.00;57.60;;;;;;5406899;26;20478;-62
2024/04/12 09:27:18;;;;;;;11.00;6.80;;;15.10;57.80;;;;;;5404604;26;20514;-61
2024/04/12 09:29:54;;;;;;;13.57;7.17;;;15.30;58.20;;;;;;5409377;26;20512;-62
2024/04/12 09:35:12;;;;;;;12.47;7.07;;;15.70;57.80;;;;;;5406400;26;20498;-63
2024/04/12 09:37:42;;;;;;;15.50;7.20;;;15.80;57.90;;;;;;5401795;26;20964;-62
2024/04/12 09:43:24;;;;;;;10.53;6.63;;;16.00;56.80;;;;;;5408520;26;20459;-64
2024/04/12 09:45:49;;;;;;;15.30;6.93;;;16.00;55.90;;;;;;5409136;26;20458;-62
2024/04/12 10:38:39;;;;;;;5.53;2.10;;;18.00;42.60;;;;;;5394880;26;20496;-62
2024/04/12 10:41:07;;;;;;;4.90;2.07;;;18.10;42.20;;;;;;5409979;26;20462;-64
2024/04/12 10:43:36;;;;;;;3.63;2.47;;;18.20;42.30;;;;;;5403866;26;20827;-63
2024/04/12 10:46:05;;;;;;;6.37;2.90;;;18.30;44.90;;;;;;5409111;26;20459;-62
2024/04/12 10:48:33;;;;;;;8.07;3.03;;;18.50;45.50;;;;;;5408003;26;20454;-62
2024/04/12 10:51:00;;;;;;;6.67;2.90;;;18.60;45.20;;;;;;5409594;26;20451;-62
2024/04/12 10:53:29;;;;;;;6.07;2.97;;;18.80;47.20;;;;;;5401202;26;20875;-63
2024/04/12 10:55:55;;;;;;;6.90;3.63;;;18.90;45.10;;;;;;5409238;26;20443;-63
2024/04/12 10:58:27;;;;;;;4.63;3.30;;;19.00;45.80;;;;;;5405048;26;20550;-63
2024/04/12 11:00:55;;;;;;;6.03;3.20;;;19.10;45.40;;;;;;5402011;26;20508;-63
2024/04/12 11:03:24;;;;;;;6.10;2.67;;;19.20;45.50;;;;;;5406312;26;20459;-63
2024/04/12 11:05:51;;;;;;;6.97;2.60;;;19.30;42.00;;;;;;5404629;26;21005;-62
2024/04/12 11:08:19;;;;;;;4.40;2.73;;;19.40;42.20;;;;;;5393477;26;20458;-63
2024/04/12 11:10:54;;;;;;;2.40;2.17;;;19.40;39.70;;;;;;5409127;26;20442;-63
2024/04/12 11:13:35;;;;;;;5.27;2.90;;;19.40;40.90;;;;;;5398562;26;20501;-63
2024/04/12 11:32:34;;;;;;;6.67;2.20;;;20.30;39.70;;;;;;5405593;26;21074;-62
2024/04/12 11:35:01;;;;;;;4.73;1.93;;;20.40;41.10;;;;;;5404310;26;20510;-64
2024/04/12 11:37:28;;;;;;;8.00;2.10;;;20.70;42.20;;;;;;5402915;26;20512;-62
2024/04/12 11:39:54;;;;;;;5.80;2.10;;;20.80;38.80;;;;;;5407036;26;21411;-63
2024/04/12 11:42:19;;;;;;;2.77;2.00;;;20.80;39.50;;;;;;5407469;26;20458;-62
2024/04/12 11:44:47;;;;;;;3.03;2.00;;;20.80;37.30;;;;;;5408162;26;20568;-62
2024/04/12 11:47:16;;;;;;;4.93;2.00;;;20.90;38.40;;;;;;5400119;26;20289;-62
2024/04/12 11:49:45;;;;;;;2.83;1.77;;;20.90;38.60;;;;;;5398610;26;20532;-62
2024/04/12 11:52:15;;;;;;;4.10;2.10;;;20.80;37.20;;;;;;5403395;26;20455;-62
2024/04/12 11:54:51;;;;;;;3.67;2.07;;;20.80;37.50;;;;;;5403221;26;20993;-62
2024/04/12 11:57:19;;;;;;;3.47;1.93;;;20.80;37.90;;;;;;5405243;26;20502;-62
2024/04/12 11:59:46;;;;;;;3.80;1.90;;;20.80;35.70;;;;;;5404141;26;20518;-62
2024/04/12 12:02:14;;;;;;;2.67;1.83;;;20.80;35.00;;;;;;5407878;26;20537;-62
2024/04/12 12:04:41;;;;;;;3.53;2.00;;;20.80;33.70;;;;;;5401368;26;21039;-62
2024/04/12 12:07:09;;;;;;;4.23;1.60;;;20.90;33.90;;;;;;5408500;26;20510;-62
2024/04/12 12:09:36;;;;;;;3.90;1.83;;;21.00;36.20;;;;;;5399766;26;21826;-62
2024/04/12 12:12:10;;;;;;;1.87;1.50;;;21.20;36.10;;;;;;5405914;26;20462;-62
2024/04/12 12:14:42;;;;;;;1.93;1.63;;;21.40;36.10;;;;;;5408022;26;20561;-63
2024/04/12 12:17:16;;;;;;;3.93;2.10;;;21.60;35.90;;;;;;5402521;26;20447;-63
2024/04/12 12:19:42;;;;;;;2.47;1.67;;;21.90;37.00;;;;;;5408177;26;20572;-63
2024/04/12 12:22:10;;;;;;;5.00;1.80;;;22.10;36.90;;;;;;5409174;26;20459;-63
2024/04/12 12:24:37;;;;;;;4.07;1.90;;;22.20;34.20;;;;;;5405892;26;20466;-63
2024/04/12 12:27:09;;;;;;;7.87;2.00;;;22.20;33.80;;;;;;5403806;26;20566;-63
2024/04/12 12:29:35;;;;;;;2.00;1.80;;;22.20;33.70;;;;;;5408341;26;20466;-63
2024/04/12 12:32:02;;;;;;;2.93;1.50;;;22.20;34.20;;;;;;5403334;26;20474;-63
2024/04/12 12:34:28;;;;;;;4.17;1.73;;;22.30;33.30;;;;;;5404241;26;20521;-63
2024/04/12 12:36:55;;;;;;;4.50;1.53;;;22.40;33.40;;;;;;5425487;26;20455;-62
2024/04/12 12:39:21;;;;;;;5.20;1.73;;;22.60;34.10;;;;;;5408599;26;20267;-63
2024/04/12 12:41:47;;;;;;;3.20;1.43;;;22.90;34.70;;;;;;5410728;26;20458;-63
2024/04/12 12:44:18;;;;;;;3.47;1.60;;;23.10;34.40;;;;;;5404530;26;20699;-63
2024/04/12 12:46:44;;;;;;;5.23;1.87;;;23.40;34.60;;;;;;5408901;26;20224;-63
2024/04/12 12:49:09;;;;;;;1.93;1.67;;;23.60;35.00;;;;;;5408451;26;20442;-63
2024/04/12 12:51:40;;;;;;;1.50;1.40;;;23.80;34.60;;;;;;5405284;26;20642;-63
2024/04/12 12:54:07;;;;;;;4.00;1.53;;;24.00;34.00;;;;;;5402648;26;20244;-63
2024/04/12 12:56:33;;;;;;;4.90;1.80;;;24.20;34.10;;;;;;5402756;26;21084;-64
2024/04/12 12:58:59;;;;;;;1.97;1.57;;;24.40;32.90;;;;;;5409165;26;20446;-63
2024/04/12 13:01:34;;;;;;;4.77;1.43;;;24.50;32.10;;;;;;5405637;26;20335;-63
2024/04/12 13:04:07;;;;;;;6.17;1.70;;;24.60;30.10;;;;;;5407095;26;20266;-63
2024/04/12 13:06:36;;;;;;;5.27;1.50;;;24.50;29.20;;;;;;5404055;26;20524;-63
2024/04/12 13:09:04;;;;;;;2.03;1.70;;;24.60;29.90;;;;;;5404613;26;21054;-63
2024/04/12 13:11:31;;;;;;;2.30;1.63;;;24.50;28.70;;;;;;5404582;26;20549;-63
2024/04/12 13:13:59;;;;;;;3.00;1.90;;;24.40;28.30;;;;;;5404890;26;21278;-64
2024/04/12 13:16:25;;;;;;;3.17;1.97;;;24.50;29.70;;;;;;5406293;26;20495;-63
2024/04/12 13:18:56;;;;;;;8.13;1.50;;;24.70;30.60;;;;;;5400125;26;20450;-63
2024/04/12 13:21:25;;;;;;;3.73;1.70;;;25.00;32.00;;;;;;5406501;26;20457;-63
2024/04/12 13:23:51;;;;;;;3.70;1.43;;;25.40;30.60;;;;;;5403536;26;20466;-64
2024/04/12 13:26:31;;;;;;;2.57;1.43;;;25.60;30.10;;;;;;5406504;26;20587;-62
2024/04/12 13:28:57;;;;;;;3.53;1.53;;;25.80;30.10;;;;;;5409796;26;20262;-63
2024/04/12 13:31:23;;;;;;;3.33;1.70;;;25.80;29.00;;;;;;5409306;26;20458;-63
2024/04/12 13:33:50;;;;;;;2.33;1.50;;;25.80;27.50;;;;;;5404473;26;20684;-63
2024/04/12 13:36:19;;;;;;;1.63;1.23;;;25.70;28.10;;;;;;5408662;26;20454;-62
2024/04/12 13:38:47;;;;;;;2.20;1.77;;;25.70;28.50;;;;;;5407083;26;20466;-63
2024/04/12 13:41:13;;;;;;;3.00;1.57;;;25.80;29.60;;;;;;5395599;26;20450;-63
2024/04/12 13:43:39;;;;;;;5.90;1.50;;;25.90;29.80;;;;;;5397495;26;21305;-62
2024/04/12 13:51:33;;;;;;;1.90;1.37;;;26.40;29.80;;;;;;5403480;26;20514;-63
2024/04/12 13:53:59;;;;;;;4.93;1.67;;;26.60;29.60;;;;;;5388955;26;20463;-65
2024/04/12 13:58:59;;;;;;;3.83;1.30;;;26.90;29.40;;;;;;5390794;26;20855;-65
2024/04/12 14:01:29;;;;;;;4.73;1.57;;;26.90;28.60;;;;;;5399530;26;20455;-65
2024/04/12 14:04:04;;;;;;;3.10;1.40;;;26.90;28.40;;;;;;5398663;26;20591;-63
2024/04/12 14:06:34;;;;;;;2.90;1.33;;;26.90;28.80;;;;;;5402722;26;20251;-64
2024/04/12 14:09:02;;;;;;;2.40;1.47;;;26.80;29.30;;;;;;5403145;26;20730;-63
2024/04/12 14:11:28;;;;;;;4.70;1.30;;;26.80;29.10;;;;;;5400442;26;20332;-63
2024/04/12 14:13:54;;;;;;;6.13;1.80;;;26.80;29.30;;;;;;5387779;26;20240;-64
2024/04/12 14:16:28;;;;;;;2.97;1.87;;;27.00;29.60;;;;;;5398186;26;20228;-64
2024/04/12 14:19:00;;;;;;;8.57;2.90;;;27.00;29.10;;;;;;5388057;26;20220;-64
2024/04/12 14:21:26;;;;;;;5.87;2.10;;;27.10;30.30;;;;;;5385810;26;20629;-64
2024/04/12 14:23:52;;;;;;;3.47;2.00;;;27.20;29.40;;;;;;5422132;26;20232;-64
2024/04/12 14:26:18;;;;;;;2.20;2.00;;;27.20;29.90;;;;;;5390120;26;20278;-63
2024/04/12 14:28:44;;;;;;;2.33;1.80;;;27.20;29.30;;;;;;5407652;26;20266;-64
2024/04/12 14:31:10;;;;;;;2.07;1.97;;;27.20;29.00;;;;;;5408582;26;20298;-63
2024/04/12 14:33:38;;;;;;;5.03;2.07;;;27.20;29.60;;;;;;5404382;26;20232;-64
2024/04/12 14:36:05;;;;;;;5.23;2.17;;;27.30;31.00;;;;;;5408692;26;20325;-65
2024/04/12 14:38:31;;;;;;;8.03;2.90;;;27.50;30.60;;;;;;5407330;26;20726;-63